SBOSBO PDX / KPDX
Speedbird OnlineSpeedbird Online PDX / KPDX

Portland International Airport
00:00 13.8°C

Location Portland, United States
Latitude: 45.58869934
Longitude: -122.5979996
Web Wikipedia
Altitude 9 Meter / 31 Feet
Distance 7,908 KM / 4,914 Miles
from London.
Time Zone UTC -7 hours (America/Los_Angeles)
Codes IATA: PDX
ICAO: KPDX
Currency £1 equals USD 1.13
Runways
RunwayLength (m)Surface
032134Asphalt
10L2438Asphalt
10R3353Asphalt
212134Asphalt
28L3353Asphalt
28R2438Asphalt
Radio
TypeDescriptionFrequency
ACP939 ARW COMD POST124.35
APPAPP118.1
APPAPP29.92
ATISATIS120.625
CLDCLNC DEL120.125
DEPDEP118.1
GNDGND121.9
OPSANG BASE OPS28.05
TWRTWR118.7
UNICUNICOM122.95
Live ATC
METAR KPDX 060553Z 32004KT 10SM CLR 16/13 A3012 RMK AO2 SLP199 T01560128 10222 20156 53005
TAF KPDX 060558Z 0606/0706 VRB03KT 5SM BR SKC FM060900 00000KT 5SM BR BKN011 FM061700 30004KT P6SM SCT012 FM061900 34006KT P6SM SKC
Weather As Of 06 Oct 2022 00:00
Description Broken clouds
Wind 6 km/h from East (80°)
Cloud Cover 75%
Precipitation Rain: none, Snow: none
Sunrise 07:14
Sunset 18:41
Lounges Alaska Lounge, Main Terminal
Rotations During the last 90 days there were
61 flights from LHR
59 flights to LHR


© 2017-2022 Speedbird Online